sensor_id;sensor_type;location;lat;lon;timestamp;temperature;humidity
39655;DHT22;25336;59.944;11.010;2022-07-10T00:01:26;16.40;42.30
39655;DHT22;25336;59.944;11.010;2022-07-10T00:03:52;16.20;42.20
39655;DHT22;25336;59.944;11.010;2022-07-10T00:06:19;16.20;42.40
39655;DHT22;25336;59.944;11.010;2022-07-10T00:08:45;16.10;42.60
39655;DHT22;25336;59.944;11.010;2022-07-10T00:11:11;16.10;42.80
39655;DHT22;25336;59.944;11.010;2022-07-10T00:13:38;16.20;42.90
39655;DHT22;25336;59.944;11.010;2022-07-10T00:16:04;16.00;42.80
39655;DHT22;25336;59.944;11.010;2022-07-10T00:18:30;15.90;42.90
39655;DHT22;25336;59.944;11.010;2022-07-10T00:20:56;15.90;43.00
39655;DHT22;25336;59.944;11.010;2022-07-10T00:23:21;15.80;43.10
39655;DHT22;25336;59.944;11.010;2022-07-10T00:25:47;15.80;43.20
39655;DHT22;25336;59.944;11.010;2022-07-10T00:28:12;15.80;43.40
39655;DHT22;25336;59.944;11.010;2022-07-10T00:30:38;16.70;44.00
39655;DHT22;25336;59.944;11.010;2022-07-10T00:33:04;15.70;43.80
39655;DHT22;25336;59.944;11.010;2022-07-10T00:35:30;15.60;43.80
39655;DHT22;25336;59.944;11.010;2022-07-10T00:37:56;15.20;43.80
39655;DHT22;25336;59.944;11.010;2022-07-10T00:40:21;16.00;44.50
39655;DHT22;25336;59.944;11.010;2022-07-10T00:42:47;15.40;44.10
39655;DHT22;25336;59.944;11.010;2022-07-10T00:45:13;15.80;44.50
39655;DHT22;25336;59.944;11.010;2022-07-10T00:47:41;15.30;44.30
39655;DHT22;25336;59.944;11.010;2022-07-10T00:50:07;15.30;44.50
39655;DHT22;25336;59.944;11.010;2022-07-10T00:52:35;15.20;44.50
39655;DHT22;25336;59.944;11.010;2022-07-10T00:55:05;15.20;44.80
39655;DHT22;25336;59.944;11.010;2022-07-10T00:57:31;15.10;44.70
39655;DHT22;25336;59.944;11.010;2022-07-10T00:59:58;15.10;44.80
39655;DHT22;25336;59.944;11.010;2022-07-10T01:02:24;15.50;45.10
39655;DHT22;25336;59.944;11.010;2022-07-10T01:04:49;15.70;45.30
39655;DHT22;25336;59.944;11.010;2022-07-10T01:07:15;15.80;45.50
39655;DHT22;25336;59.944;11.010;2022-07-10T01:09:41;15.30;45.40
39655;DHT22;25336;59.944;11.010;2022-07-10T01:12:08;15.80;45.70
39655;DHT22;25336;59.944;11.010;2022-07-10T01:14:39;14.90;45.50
39655;DHT22;25336;59.944;11.010;2022-07-10T01:17:07;14.80;45.70
39655;DHT22;25336;59.944;11.010;2022-07-10T01:19:37;15.20;45.90
39655;DHT22;25336;59.944;11.010;2022-07-10T01:22:03;14.80;45.80
39655;DHT22;25336;59.944;11.010;2022-07-10T01:24:34;14.70;46.00
39655;DHT22;25336;59.944;11.010;2022-07-10T01:27:03;15.90;46.90
39655;DHT22;25336;59.944;11.010;2022-07-10T01:29:30;14.70;46.20
39655;DHT22;25336;59.944;11.010;2022-07-10T01:31:55;14.60;46.30
39655;DHT22;25336;59.944;11.010;2022-07-10T01:34:25;14.60;46.50
39655;DHT22;25336;59.944;11.010;2022-07-10T01:36:51;14.50;46.80
39655;DHT22;25336;59.944;11.010;2022-07-10T01:39:17;14.10;46.50
39655;DHT22;25336;59.944;11.010;2022-07-10T01:41:42;14.40;46.80
39655;DHT22;25336;59.944;11.010;2022-07-10T01:44:08;15.20;47.30
39655;DHT22;25336;59.944;11.010;2022-07-10T01:46:33;14.30;47.10
39655;DHT22;25336;59.944;11.010;2022-07-10T01:48:59;14.60;47.30
39655;DHT22;25336;59.944;11.010;2022-07-10T01:51:25;14.60;47.50
39655;DHT22;25336;59.944;11.010;2022-07-10T01:53:50;14.20;47.40
39655;DHT22;25336;59.944;11.010;2022-07-10T01:56:16;15.40;48.10
39655;DHT22;25336;59.944;11.010;2022-07-10T01:58:48;14.50;47.70
39655;DHT22;25336;59.944;11.010;2022-07-10T02:01:14;14.20;48.30
39655;DHT22;25336;59.944;11.010;2022-07-10T02:03:39;15.20;49.10
39655;DHT22;25336;59.944;11.010;2022-07-10T02:06:24;14.10;48.10
39655;DHT22;25336;59.944;11.010;2022-07-10T02:08:49;15.20;48.60
39655;DHT22;25336;59.944;11.010;2022-07-10T02:11:15;15.10;48.60
39655;DHT22;25336;59.944;11.010;2022-07-10T02:13:41;14.10;48.20
39655;DHT22;25336;59.944;11.010;2022-07-10T02:16:07;14.10;48.40
39655;DHT22;25336;59.944;11.010;2022-07-10T02:18:32;14.10;48.40
39655;DHT22;25336;59.944;11.010;2022-07-10T02:20:58;14.10;48.60
39655;DHT22;25336;59.944;11.010;2022-07-10T02:23:24;14.90;49.00
39655;DHT22;25336;59.944;11.010;2022-07-10T02:25:49;14.00;48.60
39655;DHT22;25336;59.944;11.010;2022-07-10T02:28:15;14.10;48.70
39655;DHT22;25336;59.944;11.010;2022-07-10T02:30:42;14.40;49.00
39655;DHT22;25336;59.944;11.010;2022-07-10T02:33:08;14.10;48.90
39655;DHT22;25336;59.944;11.010;2022-07-10T02:35:33;14.10;48.90
39655;DHT22;25336;59.944;11.010;2022-07-10T02:37:59;14.00;48.70
39655;DHT22;25336;59.944;11.010;2022-07-10T02:40:25;14.10;48.90
39655;DHT22;25336;59.944;11.010;2022-07-10T02:42:50;14.00;49.10
39655;DHT22;25336;59.944;11.010;2022-07-10T02:45:16;14.60;49.40
39655;DHT22;25336;59.944;11.010;2022-07-10T02:47:41;14.00;49.20
39655;DHT22;25336;59.944;11.010;2022-07-10T02:50:08;15.00;49.70
39655;DHT22;25336;59.944;11.010;2022-07-10T02:52:33;14.00;49.40
39655;DHT22;25336;59.944;11.010;2022-07-10T02:54:59;14.90;49.90
39655;DHT22;25336;59.944;11.010;2022-07-10T02:57:25;14.00;49.50
39655;DHT22;25336;59.944;11.010;2022-07-10T02:59:51;14.10;49.70
39655;DHT22;25336;59.944;11.010;2022-07-10T03:02:16;14.90;50.20
39655;DHT22;25336;59.944;11.010;2022-07-10T03:04:42;14.50;50.10
39655;DHT22;25336;59.944;11.010;2022-07-10T03:07:08;14.00;50.10
39655;DHT22;25336;59.944;11.010;2022-07-10T03:09:33;14.00;50.30
39655;DHT22;25336;59.944;11.010;2022-07-10T03:11:59;14.80;50.60
39655;DHT22;25336;59.944;11.010;2022-07-10T03:14:25;14.00;50.40
39655;DHT22;25336;59.944;11.010;2022-07-10T03:16:51;14.60;51.10
39655;DHT22;25336;59.944;11.010;2022-07-10T03:19:17;15.10;51.30
39655;DHT22;25336;59.944;11.010;2022-07-10T03:21:42;13.90;50.70
39655;DHT22;25336;59.944;11.010;2022-07-10T03:24:08;14.00;50.70
39655;DHT22;25336;59.944;11.010;2022-07-10T03:26:33;14.00;50.70
39655;DHT22;25336;59.944;11.010;2022-07-10T03:28:59;15.00;51.30
39655;DHT22;25336;59.944;11.010;2022-07-10T03:31:25;15.10;51.40
39655;DHT22;25336;59.944;11.010;2022-07-10T03:33:50;14.10;51.10
39655;DHT22;25336;59.944;11.010;2022-07-10T03:36:18;15.00;51.50
39655;DHT22;25336;59.944;11.010;2022-07-10T03:38:43;14.40;51.20
39655;DHT22;25336;59.944;11.010;2022-07-10T03:41:11;14.20;51.00
39655;DHT22;25336;59.944;11.010;2022-07-10T03:43:36;14.20;51.10
39655;DHT22;25336;59.944;11.010;2022-07-10T03:46:02;14.30;51.10
39655;DHT22;25336;59.944;11.010;2022-07-10T03:48:28;14.30;51.00
39655;DHT22;25336;59.944;11.010;2022-07-10T03:50:53;14.30;50.90
39655;DHT22;25336;59.944;11.010;2022-07-10T03:53:19;14.70;51.00
39655;DHT22;25336;59.944;11.010;2022-07-10T03:55:45;14.30;50.80
39655;DHT22;25336;59.944;11.010;2022-07-10T03:58:11;14.40;50.80
39655;DHT22;25336;59.944;11.010;2022-07-10T04:00:36;14.70;51.00
39655;DHT22;25336;59.944;11.010;2022-07-10T04:03:07;14.50;50.90
39655;DHT22;25336;59.944;11.010;2022-07-10T04:05:33;15.30;51.10
39655;DHT22;25336;59.944;11.010;2022-07-10T04:07:59;15.30;50.90
39655;DHT22;25336;59.944;11.010;2022-07-10T04:10:26;14.50;50.50
39655;DHT22;25336;59.944;11.010;2022-07-10T04:12:52;14.60;50.50
39655;DHT22;25336;59.944;11.010;2022-07-10T04:15:18;14.60;50.50
39655;DHT22;25336;59.944;11.010;2022-07-10T04:17:44;15.70;50.90
39655;DHT22;25336;59.944;11.010;2022-07-10T04:20:10;15.40;50.50
39655;DHT22;25336;59.944;11.010;2022-07-10T04:22:36;14.80;50.00
39655;DHT22;25336;59.944;11.010;2022-07-10T04:25:03;14.90;49.90
39655;DHT22;25336;59.944;11.010;2022-07-10T04:27:28;14.90;50.00
39655;DHT22;25336;59.944;11.010;2022-07-10T04:29:54;14.90;49.80
39655;DHT22;25336;59.944;11.010;2022-07-10T04:32:20;15.00;49.70
39655;DHT22;25336;59.944;11.010;2022-07-10T04:34:45;15.50;49.80
39655;DHT22;25336;59.944;11.010;2022-07-10T04:37:11;15.10;49.70
39655;DHT22;25336;59.944;11.010;2022-07-10T04:39:37;15.60;49.80
39655;DHT22;25336;59.944;11.010;2022-07-10T04:42:05;15.20;49.60
39655;DHT22;25336;59.944;11.010;2022-07-10T04:44:31;15.30;49.60
39655;DHT22;25336;59.944;11.010;2022-07-10T04:46:57;16.20;49.70
39655;DHT22;25336;59.944;11.010;2022-07-10T04:49:22;15.40;49.00
39655;DHT22;25336;59.944;11.010;2022-07-10T04:51:49;15.50;49.00
39655;DHT22;25336;59.944;11.010;2022-07-10T04:54:14;15.50;49.00
39655;DHT22;25336;59.944;11.010;2022-07-10T04:56:40;15.60;49.00
39655;DHT22;25336;59.944;11.010;2022-07-10T04:59:06;15.60;48.90
39655;DHT22;25336;59.944;11.010;2022-07-10T05:01:31;15.70;48.80
39655;DHT22;25336;59.944;11.010;2022-07-10T05:03:59;15.70;48.70
39655;DHT22;25336;59.944;11.010;2022-07-10T05:06:25;15.80;48.50
39655;DHT22;25336;59.944;11.010;2022-07-10T05:08:51;15.80;49.10
39655;DHT22;25336;59.944;11.010;2022-07-10T05:11:17;15.80;48.30
39655;DHT22;25336;59.944;11.010;2022-07-10T05:13:42;15.90;48.20
39655;DHT22;25336;59.944;11.010;2022-07-10T05:16:12;16.00;48.20
39655;DHT22;25336;59.944;11.010;2022-07-10T05:18:43;16.00;48.10
39655;DHT22;25336;59.944;11.010;2022-07-10T05:21:09;16.00;48.00
39655;DHT22;25336;59.944;11.010;2022-07-10T05:23:36;16.10;47.90
39655;DHT22;25336;59.944;11.010;2022-07-10T05:26:03;16.10;47.80
39655;DHT22;25336;59.944;11.010;2022-07-10T05:28:28;16.10;47.70
39655;DHT22;25336;59.944;11.010;2022-07-10T05:30:54;16.20;47.70
39655;DHT22;25336;59.944;11.010;2022-07-10T05:33:20;16.20;47.60
39655;DHT22;25336;59.944;11.010;2022-07-10T05:35:48;16.30;47.70
39655;DHT22;25336;59.944;11.010;2022-07-10T05:38:14;16.30;47.70
39655;DHT22;25336;59.944;11.010;2022-07-10T05:40:43;17.40;48.10
39655;DHT22;25336;59.944;11.010;2022-07-10T05:43:09;16.40;47.40
39655;DHT22;25336;59.944;11.010;2022-07-10T05:45:35;16.50;47.00
39655;DHT22;25336;59.944;11.010;2022-07-10T05:48:01;16.60;46.90
39655;DHT22;25336;59.944;11.010;2022-07-10T05:50:27;16.60;46.80
39655;DHT22;25336;59.944;11.010;2022-07-10T05:52:53;16.60;46.80
39655;DHT22;25336;59.944;11.010;2022-07-10T05:55:18;16.60;46.60
39655;DHT22;25336;59.944;11.010;2022-07-10T05:57:44;17.70;47.10
39655;DHT22;25336;59.944;11.010;2022-07-10T06:00:10;16.60;46.70
39655;DHT22;25336;59.944;11.010;2022-07-10T06:02:36;16.60;46.70
39655;DHT22;25336;59.944;11.010;2022-07-10T06:05:02;16.70;47.00
39655;DHT22;25336;59.944;11.010;2022-07-10T06:07:33;16.70;46.80
39655;DHT22;25336;59.944;11.010;2022-07-10T06:09:59;16.80;46.70
39655;DHT22;25336;59.944;11.010;2022-07-10T06:12:28;16.90;47.00
39655;DHT22;25336;59.944;11.010;2022-07-10T06:14:53;16.90;46.70
39655;DHT22;25336;59.944;11.010;2022-07-10T06:17:19;17.00;46.50
39655;DHT22;25336;59.944;11.010;2022-07-10T06:19:45;17.10;46.20
39655;DHT22;25336;59.944;11.010;2022-07-10T06:22:10;17.80;46.40
39655;DHT22;25336;59.944;11.010;2022-07-10T06:24:55;17.20;45.90
39655;DHT22;25336;59.944;11.010;2022-07-10T06:27:23;17.30;45.80
39655;DHT22;25336;59.944;11.010;2022-07-10T06:29:49;17.30;45.30
39655;DHT22;25336;59.944;11.010;2022-07-10T06:32:14;17.40;44.70
39655;DHT22;25336;59.944;11.010;2022-07-10T06:34:40;17.40;44.20
39655;DHT22;25336;59.944;11.010;2022-07-10T06:37:06;17.50;43.80
39655;DHT22;25336;59.944;11.010;2022-07-10T06:39:33;17.50;43.70
39655;DHT22;25336;59.944;11.010;2022-07-10T06:42:06;18.20;43.80
39655;DHT22;25336;59.944;11.010;2022-07-10T06:44:31;17.60;43.30
39655;DHT22;25336;59.944;11.010;2022-07-10T06:46:58;17.70;43.10
39655;DHT22;25336;59.944;11.010;2022-07-10T06:49:56;18.50;43.30
39655;DHT22;25336;59.944;11.010;2022-07-10T06:52:22;17.80;43.00
39655;DHT22;25336;59.944;11.010;2022-07-10T06:54:48;17.90;42.50
39655;DHT22;25336;59.944;11.010;2022-07-10T06:57:16;17.90;42.20
39655;DHT22;25336;59.944;11.010;2022-07-10T06:59:45;17.90;41.70
39655;DHT22;25336;59.944;11.010;2022-07-10T07:02:10;17.90;41.80
39655;DHT22;25336;59.944;11.010;2022-07-10T07:04:36;17.90;42.00
39655;DHT22;25336;59.944;11.010;2022-07-10T07:07:03;17.90;41.90
39655;DHT22;25336;59.944;11.010;2022-07-10T07:09:29;18.00;42.00
39655;DHT22;25336;59.944;11.010;2022-07-10T07:11:54;18.00;41.50
39655;DHT22;25336;59.944;11.010;2022-07-10T07:14:23;18.00;41.70
39655;DHT22;25336;59.944;11.010;2022-07-10T07:16:49;18.00;41.30
39655;DHT22;25336;59.944;11.010;2022-07-10T07:19:26;18.10;41.20
39655;DHT22;25336;59.944;11.010;2022-07-10T07:22:25;18.20;41.10
39655;DHT22;25336;59.944;11.010;2022-07-10T07:25:10;18.10;41.00
39655;DHT22;25336;59.944;11.010;2022-07-10T07:27:38;18.10;40.90
39655;DHT22;25336;59.944;11.010;2022-07-10T07:30:09;18.10;40.60
39655;DHT22;25336;59.944;11.010;2022-07-10T07:32:41;18.00;40.90
39655;DHT22;25336;59.944;11.010;2022-07-10T07:35:08;18.00;41.30
39655;DHT22;25336;59.944;11.010;2022-07-10T07:40:06;18.00;41.70
39655;DHT22;25336;59.944;11.010;2022-07-10T07:42:35;18.10;41.90
39655;DHT22;25336;59.944;11.010;2022-07-10T07:45:03;18.20;41.80
39655;DHT22;25336;59.944;11.010;2022-07-10T07:47:39;18.30;41.70
39655;DHT22;25336;59.944;11.010;2022-07-10T07:50:07;18.30;41.80
39655;DHT22;25336;59.944;11.010;2022-07-10T07:52:33;18.40;41.80
39655;DHT22;25336;59.944;11.010;2022-07-10T07:55:01;18.50;41.40
39655;DHT22;25336;59.944;11.010;2022-07-10T07:57:30;18.60;41.00
39655;DHT22;25336;59.944;11.010;2022-07-10T07:59:55;18.70;41.30
39655;DHT22;25336;59.944;11.010;2022-07-10T08:02:23;18.80;41.40
39655;DHT22;25336;59.944;11.010;2022-07-10T08:04:49;18.80;41.00
39655;DHT22;25336;59.944;11.010;2022-07-10T08:07:18;18.90;41.00
39655;DHT22;25336;59.944;11.010;2022-07-10T08:09:43;19.00;41.70
39655;DHT22;25336;59.944;11.010;2022-07-10T08:12:10;19.10;41.10
39655;DHT22;25336;59.944;11.010;2022-07-10T08:14:36;19.10;40.70
39655;DHT22;25336;59.944;11.010;2022-07-10T08:17:07;19.20;40.60
39655;DHT22;25336;59.944;11.010;2022-07-10T08:19:32;19.20;40.00
39655;DHT22;25336;59.944;11.010;2022-07-10T08:22:00;19.20;39.90
39655;DHT22;25336;59.944;11.010;2022-07-10T08:24:31;19.30;40.00
39655;DHT22;25336;59.944;11.010;2022-07-10T08:26:57;19.30;39.90
39655;DHT22;25336;59.944;11.010;2022-07-10T08:29:25;19.30;39.90
39655;DHT22;25336;59.944;11.010;2022-07-10T08:31:50;19.30;39.70
39655;DHT22;25336;59.944;11.010;2022-07-10T08:34:16;19.30;39.70
39655;DHT22;25336;59.944;11.010;2022-07-10T08:36:42;19.30;39.40
39655;DHT22;25336;59.944;11.010;2022-07-10T08:39:07;19.20;39.30
39655;DHT22;25336;59.944;11.010;2022-07-10T08:41:35;19.20;39.30
39655;DHT22;25336;59.944;11.010;2022-07-10T08:44:04;19.20;39.80
39655;DHT22;25336;59.944;11.010;2022-07-10T08:46:31;19.20;39.90
39655;DHT22;25336;59.944;11.010;2022-07-10T08:48:59;19.20;39.70
39655;DHT22;25336;59.944;11.010;2022-07-10T08:51:37;19.20;39.90
39655;DHT22;25336;59.944;11.010;2022-07-10T08:54:07;19.20;40.20
39655;DHT22;25336;59.944;11.010;2022-07-10T08:56:34;19.40;40.10
39655;DHT22;25336;59.944;11.010;2022-07-10T08:59:01;19.50;40.10
39655;DHT22;25336;59.944;11.010;2022-07-10T09:01:28;19.60;40.00
39655;DHT22;25336;59.944;11.010;2022-07-10T09:03:54;19.60;39.80
39655;DHT22;25336;59.944;11.010;2022-07-10T09:06:20;19.70;39.50
39655;DHT22;25336;59.944;11.010;2022-07-10T09:09:05;19.80;39.70
39655;DHT22;25336;59.944;11.010;2022-07-10T09:11:33;19.90;39.80
39655;DHT22;25336;59.944;11.010;2022-07-10T09:14:01;20.80;39.70
39655;DHT22;25336;59.944;11.010;2022-07-10T09:16:35;20.00;39.30
39655;DHT22;25336;59.944;11.010;2022-07-10T09:19:22;20.10;39.00
39655;DHT22;25336;59.944;11.010;2022-07-10T09:22:22;20.20;39.10
39655;DHT22;25336;59.944;11.010;2022-07-10T09:24:45;20.20;39.10
39655;DHT22;25336;59.944;11.010;2022-07-10T09:27:13;20.30;38.70
39655;DHT22;25336;59.944;11.010;2022-07-10T09:29:50;20.40;38.80
39655;DHT22;25336;59.944;11.010;2022-07-10T09:32:22;20.40;38.90
39655;DHT22;25336;59.944;11.010;2022-07-10T09:34:52;20.10;38.60
39655;DHT22;25336;59.944;11.010;2022-07-10T09:37:42;20.60;38.50
39655;DHT22;25336;59.944;11.010;2022-07-10T09:40:09;21.40;38.70
39655;DHT22;25336;59.944;11.010;2022-07-10T09:45:13;20.70;38.30
39655;DHT22;25336;59.944;11.010;2022-07-10T09:48:05;20.80;38.10
39655;DHT22;25336;59.944;11.010;2022-07-10T09:50:36;20.80;38.30
39655;DHT22;25336;59.944;11.010;2022-07-10T09:53:06;20.80;38.10
39655;DHT22;25336;59.944;11.010;2022-07-10T09:55:36;20.90;37.90
39655;DHT22;25336;59.944;11.010;2022-07-10T09:58:08;20.90;38.00
39655;DHT22;25336;59.944;11.010;2022-07-10T10:00:40;21.00;38.10
39655;DHT22;25336;59.944;11.010;2022-07-10T10:03:14;21.10;37.90
39655;DHT22;25336;59.944;11.010;2022-07-10T10:05:54;21.00;37.80
39655;DHT22;25336;59.944;11.010;2022-07-10T10:10:59;21.10;37.60
39655;DHT22;25336;59.944;11.010;2022-07-10T10:13:28;21.10;37.20
39655;DHT22;25336;59.944;11.010;2022-07-10T10:15:54;21.20;37.30
39655;DHT22;25336;59.944;11.010;2022-07-10T10:18:25;21.20;37.00
39655;DHT22;25336;59.944;11.010;2022-07-10T10:20:52;21.20;37.20
39655;DHT22;25336;59.944;11.010;2022-07-10T10:23:20;21.60;37.90
39655;DHT22;25336;59.944;11.010;2022-07-10T10:25:53;21.30;37.40
39655;DHT22;25336;59.944;11.010;2022-07-10T10:28:20;21.30;37.20
39655;DHT22;25336;59.944;11.010;2022-07-10T10:30:57;21.40;37.10
39655;DHT22;25336;59.944;11.010;2022-07-10T10:35:58;21.50;36.90
39655;DHT22;25336;59.944;11.010;2022-07-10T10:38:24;21.50;36.90
39655;DHT22;25336;59.944;11.010;2022-07-10T10:40:50;21.50;36.60
39655;DHT22;25336;59.944;11.010;2022-07-10T10:43:20;21.50;36.30
39655;DHT22;25336;59.944;11.010;2022-07-10T10:45:50;21.50;36.40
39655;DHT22;25336;59.944;11.010;2022-07-10T10:48:18;21.60;36.30
39655;DHT22;25336;59.944;11.010;2022-07-10T10:50:47;21.70;36.40
39655;DHT22;25336;59.944;11.010;2022-07-10T10:58:46;21.80;35.50
39655;DHT22;25336;59.944;11.010;2022-07-10T11:06:47;22.00;35.30
39655;DHT22;25336;59.944;11.010;2022-07-10T11:09:29;22.10;35.40
39655;DHT22;25336;59.944;11.010;2022-07-10T11:14:27;22.10;35.00
39655;DHT22;25336;59.944;11.010;2022-07-10T11:16:57;22.10;35.90
39655;DHT22;25336;59.944;11.010;2022-07-10T11:19:24;22.10;35.10
39655;DHT22;25336;59.944;11.010;2022-07-10T11:30:07;22.20;34.60
39655;DHT22;25336;59.944;11.010;2022-07-10T11:32:33;22.20;34.80
39655;DHT22;25336;59.944;11.010;2022-07-10T11:34:59;22.20;34.70
39655;DHT22;25336;59.944;11.010;2022-07-10T11:37:25;22.30;35.10
39655;DHT22;25336;59.944;11.010;2022-07-10T11:40:08;22.40;35.00
39655;DHT22;25336;59.944;11.010;2022-07-10T11:42:52;22.40;34.80
39655;DHT22;25336;59.944;11.010;2022-07-10T11:45:26;22.50;33.70
39655;DHT22;25336;59.944;11.010;2022-07-10T11:47:52;22.50;34.20
39655;DHT22;25336;59.944;11.010;2022-07-10T11:50:18;22.50;34.30
39655;DHT22;25336;59.944;11.010;2022-07-10T11:52:45;21.60;33.90
39655;DHT22;25336;59.944;11.010;2022-07-10T11:57:41;22.70;34.60
39655;DHT22;25336;59.944;11.010;2022-07-10T12:00:21;22.70;34.90
39655;DHT22;25336;59.944;11.010;2022-07-10T12:02:47;22.80;34.00
39655;DHT22;25336;59.944;11.010;2022-07-10T12:05:32;22.90;33.70
39655;DHT22;25336;59.944;11.010;2022-07-10T12:07:59;23.00;34.00
39655;DHT22;25336;59.944;11.010;2022-07-10T12:10:28;23.00;33.70
39655;DHT22;25336;59.944;11.010;2022-07-10T12:13:09;23.10;33.80
39655;DHT22;25336;59.944;11.010;2022-07-10T12:15:39;23.10;33.90
39655;DHT22;25336;59.944;11.010;2022-07-10T12:18:09;23.10;33.60
39655;DHT22;25336;59.944;11.010;2022-07-10T12:20:40;23.20;33.10
39655;DHT22;25336;59.944;11.010;2022-07-10T12:23:08;23.10;33.40
39655;DHT22;25336;59.944;11.010;2022-07-10T12:25:35;23.10;33.50
39655;DHT22;25336;59.944;11.010;2022-07-10T12:28:01;23.10;33.30
39655;DHT22;25336;59.944;11.010;2022-07-10T12:30:38;23.10;32.60
39655;DHT22;25336;59.944;11.010;2022-07-10T12:35:49;23.00;32.70
39655;DHT22;25336;59.944;11.010;2022-07-10T12:40:49;22.90;33.10
39655;DHT22;25336;59.944;11.010;2022-07-10T12:43:28;22.90;33.40
39655;DHT22;25336;59.944;11.010;2022-07-10T12:48:39;22.90;33.70
39655;DHT22;25336;59.944;11.010;2022-07-10T12:51:31;22.90;33.70
39655;DHT22;25336;59.944;11.010;2022-07-10T12:53:57;22.90;33.80
39655;DHT22;25336;59.944;11.010;2022-07-10T12:56:31;22.90;33.30
39655;DHT22;25336;59.944;11.010;2022-07-10T12:59:00;23.00;33.50
39655;DHT22;25336;59.944;11.010;2022-07-10T13:01:27;23.00;33.00
39655;DHT22;25336;59.944;11.010;2022-07-10T13:03:59;23.00;33.10
39655;DHT22;25336;59.944;11.010;2022-07-10T13:06:32;23.00;33.10
39655;DHT22;25336;59.944;11.010;2022-07-10T13:08:58;23.00;33.70
39655;DHT22;25336;59.944;11.010;2022-07-10T13:11:24;23.00;33.50
39655;DHT22;25336;59.944;11.010;2022-07-10T13:13:50;23.10;33.30
39655;DHT22;25336;59.944;11.010;2022-07-10T13:16:16;23.10;33.60
39655;DHT22;25336;59.944;11.010;2022-07-10T13:18:43;23.20;33.50
39655;DHT22;25336;59.944;11.010;2022-07-10T13:21:11;23.20;33.90
39655;DHT22;25336;59.944;11.010;2022-07-10T13:23:38;23.20;33.50
39655;DHT22;25336;59.944;11.010;2022-07-10T13:26:04;23.30;33.20
39655;DHT22;25336;59.944;11.010;2022-07-10T13:28:32;23.30;33.50
39655;DHT22;25336;59.944;11.010;2022-07-10T13:30:58;23.30;33.30
39655;DHT22;25336;59.944;11.010;2022-07-10T13:33:24;23.40;32.90
39655;DHT22;25336;59.944;11.010;2022-07-10T13:35:50;23.30;32.50
39655;DHT22;25336;59.944;11.010;2022-07-10T13:38:16;23.40;32.80
39655;DHT22;25336;59.944;11.010;2022-07-10T13:40:44;23.40;32.80
39655;DHT22;25336;59.944;11.010;2022-07-10T13:43:11;23.40;32.50
39655;DHT22;25336;59.944;11.010;2022-07-10T13:45:38;23.40;32.60
39655;DHT22;25336;59.944;11.010;2022-07-10T13:48:08;23.40;33.40
39655;DHT22;25336;59.944;11.010;2022-07-10T13:50:37;23.50;33.20
39655;DHT22;25336;59.944;11.010;2022-07-10T13:53:02;24.40;33.50
39655;DHT22;25336;59.944;11.010;2022-07-10T13:55:28;23.60;33.30
39655;DHT22;25336;59.944;11.010;2022-07-10T13:57:54;23.60;32.50
39655;DHT22;25336;59.944;11.010;2022-07-10T14:00:20;23.60;32.40
39655;DHT22;25336;59.944;11.010;2022-07-10T14:02:45;23.70;32.60
39655;DHT22;25336;59.944;11.010;2022-07-10T14:05:11;23.70;32.50
39655;DHT22;25336;59.944;11.010;2022-07-10T14:07:37;23.70;32.60
39655;DHT22;25336;59.944;11.010;2022-07-10T14:10:03;23.70;32.90
39655;DHT22;25336;59.944;11.010;2022-07-10T14:12:29;23.70;33.10
39655;DHT22;25336;59.944;11.010;2022-07-10T14:14:57;23.80;32.70
39655;DHT22;25336;59.944;11.010;2022-07-10T14:17:23;23.80;32.80
39655;DHT22;25336;59.944;11.010;2022-07-10T14:19:49;24.50;32.40
39655;DHT22;25336;59.944;11.010;2022-07-10T14:22:16;23.80;32.30
39655;DHT22;25336;59.944;11.010;2022-07-10T14:24:41;23.80;32.60
39655;DHT22;25336;59.944;11.010;2022-07-10T14:27:07;23.80;32.80
39655;DHT22;25336;59.944;11.010;2022-07-10T14:29:33;23.90;32.80
39655;DHT22;25336;59.944;11.010;2022-07-10T14:31:59;23.90;32.10
39655;DHT22;25336;59.944;11.010;2022-07-10T14:34:24;23.90;31.70
39655;DHT22;25336;59.944;11.010;2022-07-10T14:36:51;24.00;31.80
39655;DHT22;25336;59.944;11.010;2022-07-10T14:39:17;23.50;31.50
39655;DHT22;25336;59.944;11.010;2022-07-10T14:41:43;23.90;31.90
39655;DHT22;25336;59.944;11.010;2022-07-10T14:44:08;23.90;32.00
39655;DHT22;25336;59.944;11.010;2022-07-10T14:46:34;24.00;32.20
39655;DHT22;25336;59.944;11.010;2022-07-10T14:49:00;24.00;31.80
39655;DHT22;25336;59.944;11.010;2022-07-10T14:51:26;24.00;31.40
39655;DHT22;25336;59.944;11.010;2022-07-10T14:53:52;24.10;31.20
39655;DHT22;25336;59.944;11.010;2022-07-10T14:56:19;24.10;31.30
39655;DHT22;25336;59.944;11.010;2022-07-10T14:58:47;24.10;31.40
39655;DHT22;25336;59.944;11.010;2022-07-10T15:01:13;24.10;31.50
39655;DHT22;25336;59.944;11.010;2022-07-10T15:03:40;24.10;31.40
39655;DHT22;25336;59.944;11.010;2022-07-10T15:06:06;24.10;31.50
39655;DHT22;25336;59.944;11.010;2022-07-10T15:08:31;24.10;31.80
39655;DHT22;25336;59.944;11.010;2022-07-10T15:10:57;24.20;32.00
39655;DHT22;25336;59.944;11.010;2022-07-10T15:13:25;24.20;31.30
39655;DHT22;25336;59.944;11.010;2022-07-10T15:15:51;24.80;31.50
39655;DHT22;25336;59.944;11.010;2022-07-10T15:18:18;24.30;30.80
39655;DHT22;25336;59.944;11.010;2022-07-10T15:20:45;24.30;30.50
39655;DHT22;25336;59.944;11.010;2022-07-10T15:23:11;24.30;30.30
39655;DHT22;25336;59.944;11.010;2022-07-10T15:25:38;24.30;30.50
39655;DHT22;25336;59.944;11.010;2022-07-10T15:28:05;24.30;30.70
39655;DHT22;25336;59.944;11.010;2022-07-10T15:30:33;24.30;30.50
39655;DHT22;25336;59.944;11.010;2022-07-10T15:32:58;24.30;30.60
39655;DHT22;25336;59.944;11.010;2022-07-10T15:35:24;24.40;30.40
39655;DHT22;25336;59.944;11.010;2022-07-10T15:37:49;24.40;30.30
39655;DHT22;25336;59.944;11.010;2022-07-10T15:40:15;24.30;30.40
39655;DHT22;25336;59.944;11.010;2022-07-10T15:42:41;24.40;30.80
39655;DHT22;25336;59.944;11.010;2022-07-10T15:45:07;24.40;30.20
39655;DHT22;25336;59.944;11.010;2022-07-10T15:47:33;24.40;30.00
39655;DHT22;25336;59.944;11.010;2022-07-10T15:49:59;24.40;29.90
39655;DHT22;25336;59.944;11.010;2022-07-10T15:52:24;24.40;29.80
39655;DHT22;25336;59.944;11.010;2022-07-10T15:54:50;24.50;30.40
39655;DHT22;25336;59.944;11.010;2022-07-10T15:57:15;24.40;30.00
39655;DHT22;25336;59.944;11.010;2022-07-10T15:59:41;24.40;30.00
39655;DHT22;25336;59.944;11.010;2022-07-10T16:02:08;24.40;30.30